KMOR/MOR METAR and TAF weather

Enter ICAO airport designator
Station Type Date Time Source
KMOR METAR 2019/12/05 23:15 UTC NOAA

KMOR 052315Z AUTO 00000KT 10SM CLR 08/M02 A3012 RMK A01


Station Type Date Time Source
KMOR Decoded METAR 2019/12/05 23:15 UTC NOAA

Station name not available
Dec 05, 2019 - 06:15 PM EST / 2019.12.05 2315 UTC
Wind: Calm:0
Visibility: 10 mile(s):0
Sky conditions: clear
Temperature: 46 F (8 C)
Dew Point: 28 F (-2 C)
Relative Humidity: 49%
Pressure (altimeter): 30.12 in. Hg (1019 hPa)
ob: KMOR 052315Z AUTO 00000KT 10SM CLR 08/M02 A3012 RMK A01
cycle: 23

Station Type Date Time Source
KMOR TAF UTC NOAA

Error!

Example: see airport list